createdAt,value
2022-08-14T00:02:14.762Z,21.16
2022-08-14T00:04:44.931Z,21.16
2022-08-14T00:07:13.984Z,21.08
2022-08-14T00:09:55.900Z,21.20
2022-08-14T00:12:37.633Z,20.60
2022-08-14T00:15:15.446Z,21.10
2022-08-14T00:17:47.914Z,20.71
2022-08-14T00:20:23.987Z,20.71
2022-08-14T00:22:58.887Z,20.51
2022-08-14T00:25:42.392Z,21.06
2022-08-14T00:28:15.375Z,20.55
2022-08-14T00:30:47.366Z,20.87
2022-08-14T00:33:16.072Z,20.98
2022-08-14T00:36:39.502Z,20.87
2022-08-14T00:38:34.644Z,20.74
2022-08-14T00:41:07.189Z,20.45
2022-08-14T00:43:38.207Z,20.77
2022-08-14T00:46:32.915Z,20.66
2022-08-14T00:48:58.450Z,20.52
2022-08-14T00:51:34.462Z,20.76
2022-08-14T00:54:17.089Z,20.41
2022-08-14T00:56:55.765Z,20.71
2022-08-14T00:59:28.816Z,20.69
2022-08-14T01:02:00.854Z,20.58
2022-08-14T01:04:51.880Z,20.06
2022-08-14T01:07:22.747Z,20.55
2022-08-14T01:09:52.683Z,20.53
2022-08-14T01:12:27.280Z,20.56
2022-08-14T01:15:02.846Z,20.55
2022-08-14T01:17:51.782Z,20.43
2022-08-14T01:20:40.649Z,20.15
2022-08-14T01:23:16.571Z,20.45
2022-08-14T01:25:48.868Z,20.36
2022-08-14T01:28:47.211Z,20.25
2022-08-14T01:31:15.380Z,20.31
2022-08-14T01:35:16.097Z,19.59
2022-08-14T01:36:39.130Z,20.31
2022-08-14T01:39:13.577Z,20.33
2022-08-14T01:41:44.096Z,20.15
2022-08-14T01:44:32.620Z,20.24
2022-08-14T01:47:16.586Z,20.15
2022-08-14T01:50:01.735Z,19.84
2022-08-14T01:52:59.112Z,19.89
2022-08-14T01:55:29.318Z,20.17
2022-08-14T01:58:02.287Z,20.11
2022-08-14T02:00:44.523Z,19.98
2022-08-14T02:03:16.615Z,20.11
2022-08-14T02:05:43.695Z,19.70
2022-08-14T02:08:10.818Z,19.87
2022-08-14T02:10:46.952Z,19.66
2022-08-14T02:13:17.282Z,20.02
2022-08-14T02:15:48.364Z,19.97
2022-08-14T02:18:16.360Z,19.97
2022-08-14T02:20:46.089Z,19.90
2022-08-14T02:23:14.586Z,19.56
2022-08-14T02:25:44.280Z,19.95
2022-08-14T02:28:57.892Z,19.86
2022-08-14T02:31:09.569Z,19.48
2022-08-14T02:33:39.265Z,19.82
2022-08-14T02:37:04.689Z,19.89
2022-08-14T02:38:53.661Z,19.73
2022-08-14T02:41:20.695Z,19.70
2022-08-14T02:43:48.568Z,19.50
2022-08-14T02:46:20.689Z,19.86
2022-08-14T02:49:03.722Z,19.51
2022-08-14T02:51:36.553Z,19.86
2022-08-14T02:54:07.305Z,19.90
2022-08-14T02:57:16.180Z,19.91
2022-08-14T02:59:33.668Z,19.63
2022-08-14T03:02:03.241Z,19.93
2022-08-14T03:04:31.165Z,19.49
2022-08-14T03:07:07.617Z,19.83
2022-08-14T03:10:24.753Z,19.97
2022-08-14T03:12:31.229Z,19.93
2022-08-14T03:15:16.327Z,18.56
2022-08-14T03:17:57.614Z,19.94
2022-08-14T03:20:30.437Z,20.06
2022-08-14T03:23:03.189Z,20.08
2022-08-14T03:25:33.532Z,20.05
2022-08-14T03:28:14.546Z,19.72
2022-08-14T03:30:59.841Z,19.97
2022-08-14T03:33:38.007Z,20.03
2022-08-14T03:37:28.872Z,20.28
2022-08-14T03:39:11.565Z,20.34
2022-08-14T03:41:43.413Z,20.31
2022-08-14T03:45:25.361Z,20.43
2022-08-14T03:46:57.439Z,20.37
2022-08-14T03:49:29.639Z,20.55
2022-08-14T03:52:00.693Z,20.56
2022-08-14T03:54:29.348Z,20.56
2022-08-14T03:57:02.505Z,20.68
2022-08-14T03:59:32.336Z,20.51
2022-08-14T04:02:02.166Z,20.75
2022-08-14T04:04:30.897Z,20.92
2022-08-14T04:06:59.711Z,20.98
2022-08-14T04:09:27.624Z,20.93
2022-08-14T04:11:56.193Z,20.77
2022-08-14T04:14:25.151Z,21.16
2022-08-14T04:16:52.158Z,21.17
2022-08-14T04:19:24.624Z,21.24
2022-08-14T04:22:03.591Z,21.34
2022-08-14T04:24:38.644Z,21.44
2022-08-14T04:27:11.888Z,21.56
2022-08-14T04:29:44.928Z,21.23
2022-08-14T04:32:58.175Z,21.45
2022-08-14T04:35:07.509Z,21.80
2022-08-14T04:37:56.577Z,21.75
2022-08-14T04:40:42.133Z,21.85
2022-08-14T04:43:38.367Z,21.68
2022-08-14T04:46:56.761Z,21.60
2022-08-14T04:48:59.806Z,21.96
2022-08-14T04:51:30.161Z,21.22
2022-08-14T04:54:13.563Z,21.68
2022-08-14T04:56:43.659Z,22.39
2022-08-14T04:59:12.411Z,22.47
2022-08-14T05:01:47.978Z,22.43
2022-08-14T05:04:19.880Z,22.34
2022-08-14T05:06:53.487Z,22.35
2022-08-14T05:09:22.003Z,22.33
2022-08-14T05:11:51.552Z,22.95
2022-08-14T05:14:45.465Z,22.59
2022-08-14T05:17:13.162Z,22.79
2022-08-14T05:19:44.748Z,22.75
2022-08-14T05:22:27.403Z,22.84
2022-08-14T05:24:54.437Z,23.43
2022-08-14T05:27:23.194Z,23.41
2022-08-14T05:29:56.873Z,23.51
2022-08-14T05:32:27.187Z,23.62
2022-08-14T05:35:00.209Z,23.28
2022-08-14T05:37:29.913Z,23.32
2022-08-14T05:39:58.554Z,23.90
2022-08-14T05:42:29.342Z,23.91
2022-08-14T05:44:59.898Z,24.11
2022-08-14T05:47:28.569Z,24.19
2022-08-14T05:50:02.021Z,23.71
2022-08-14T05:52:38.643Z,24.32
2022-08-14T05:55:09.226Z,24.35
2022-08-14T05:57:47.667Z,24.05
2022-08-14T06:00:28.250Z,24.35
2022-08-14T06:03:00.615Z,24.58
2022-08-14T06:05:31.807Z,24.78
2022-08-14T06:08:00.105Z,24.83
2022-08-14T06:10:31.370Z,24.63
2022-08-14T06:13:04.021Z,25.09
2022-08-14T06:15:31.665Z,24.86
2022-08-14T06:18:00.549Z,24.87
2022-08-14T06:20:30.176Z,24.76
2022-08-14T06:22:58.283Z,25.56
2022-08-14T06:25:26.956Z,25.85
2022-08-14T06:27:55.177Z,25.62
2022-08-14T06:30:30.381Z,25.71
2022-08-14T06:33:13.189Z,26.07
2022-08-14T06:35:43.581Z,26.22
2022-08-14T06:38:19.571Z,26.52
2022-08-14T06:40:49.937Z,26.61
2022-08-14T06:43:19.779Z,26.74
2022-08-14T06:45:53.731Z,26.69
2022-08-14T06:48:25.496Z,26.92
2022-08-14T06:50:54.248Z,27.09
2022-08-14T06:53:22.310Z,27.14
2022-08-14T06:56:00.663Z,26.78
2022-08-14T06:58:31.357Z,26.99
2022-08-14T07:01:27.128Z,27.36
2022-08-14T07:04:23.691Z,27.34
2022-08-14T07:06:55.844Z,27.45
2022-08-14T07:09:28.275Z,27.48
2022-08-14T07:12:54.809Z,27.23
2022-08-14T07:14:58.841Z,27.50
2022-08-14T07:17:31.931Z,27.58
2022-08-14T07:20:01.259Z,27.59
2022-08-14T07:22:32.751Z,26.84
2022-08-14T07:25:06.125Z,27.79
2022-08-14T07:27:33.492Z,27.90
2022-08-14T07:30:05.386Z,27.99
2022-08-14T07:32:36.155Z,27.90
2022-08-14T07:35:03.176Z,28.03
2022-08-14T07:37:30.428Z,28.03
2022-08-14T07:39:57.458Z,28.12
2022-08-14T07:42:24.509Z,28.16
2022-08-14T07:44:51.921Z,27.78
2022-08-14T07:47:23.190Z,27.78
2022-08-14T07:50:01.668Z,28.31
2022-08-14T07:52:31.918Z,28.25
2022-08-14T07:55:00.813Z,28.22
2022-08-14T07:57:27.931Z,28.18
2022-08-14T07:59:55.042Z,28.32
2022-08-14T08:02:22.840Z,28.32
2022-08-14T08:04:55.203Z,28.37
2022-08-14T08:07:29.445Z,28.45
2022-08-14T08:10:00.760Z,28.48
2022-08-14T08:12:38.590Z,28.50
2022-08-14T08:15:07.737Z,28.63
2022-08-14T08:17:38.315Z,28.62
2022-08-14T08:20:11.430Z,28.77
2022-08-14T08:22:47.954Z,28.80
2022-08-14T08:25:18.356Z,28.63
2022-08-14T08:28:00.649Z,28.85
2022-08-14T08:30:37.838Z,28.57
2022-08-14T08:33:17.867Z,28.95
2022-08-14T08:35:50.496Z,28.98
2022-08-14T08:39:15.620Z,29.11
2022-08-14T08:41:11.575Z,29.12
2022-08-14T08:43:46.207Z,28.85
2022-08-14T08:46:23.573Z,29.35
2022-08-14T08:51:33.312Z,29.53
2022-08-14T08:54:14.989Z,29.70
2022-08-14T08:56:47.534Z,29.40
2022-08-14T08:59:31.627Z,29.39
2022-08-14T09:02:09.289Z,29.81
2022-08-14T09:04:45.501Z,29.70
2022-08-14T09:07:27.080Z,29.86
2022-08-14T09:09:59.120Z,29.75
2022-08-14T09:12:32.451Z,29.57
2022-08-14T09:15:14.027Z,29.82
2022-08-14T09:17:42.720Z,29.77
2022-08-14T09:20:12.201Z,29.47
2022-08-14T09:22:42.712Z,30.08
2022-08-14T09:25:19.537Z,30.15
2022-08-14T09:27:47.265Z,30.00
2022-08-14T09:30:32.936Z,30.09
2022-08-14T09:33:11.068Z,30.23
2022-08-14T09:36:18.597Z,30.36
2022-08-14T09:39:08.113Z,30.44
2022-08-14T09:42:17.324Z,30.69
2022-08-14T09:44:57.239Z,30.68
2022-08-14T09:47:52.117Z,31.59
2022-08-14T09:50:25.648Z,31.75
2022-08-14T09:53:18.212Z,31.79
2022-08-14T09:55:58.628Z,31.47
2022-08-14T09:58:45.490Z,31.66
2022-08-14T10:01:14.778Z,31.38
2022-08-14T10:03:59.628Z,31.23
2022-08-14T10:06:29.594Z,30.95
2022-08-14T10:09:11.875Z,30.61
2022-08-14T10:11:58.693Z,30.50
2022-08-14T10:14:35.302Z,30.34
2022-08-14T10:17:08.668Z,30.26
2022-08-14T10:19:48.493Z,29.63
2022-08-14T10:23:15.453Z,29.19
2022-08-14T10:25:15.311Z,29.92
2022-08-14T10:27:46.721Z,29.80
2022-08-14T10:30:22.823Z,29.48
2022-08-14T10:32:55.602Z,29.37
2022-08-14T10:35:23.409Z,29.57
2022-08-14T10:38:01.292Z,29.68
2022-08-14T10:40:37.884Z,29.66
2022-08-14T10:43:22.980Z,29.72
2022-08-14T10:46:03.627Z,29.42
2022-08-14T10:49:00.312Z,29.49
2022-08-14T10:51:30.134Z,29.48
2022-08-14T10:54:16.817Z,29.61
2022-08-14T10:56:59.442Z,29.60
2022-08-14T10:59:36.174Z,29.63
2022-08-14T11:02:22.293Z,29.79
2022-08-14T11:05:13.245Z,29.82
2022-08-14T11:07:56.471Z,29.84
2022-08-14T11:10:44.254Z,29.97
2022-08-14T11:13:24.135Z,29.16
2022-08-14T11:15:52.808Z,29.33
2022-08-14T11:18:30.332Z,29.40
2022-08-14T11:21:06.602Z,29.61
2022-08-14T11:23:39.841Z,29.05
2022-08-14T11:26:10.445Z,29.67
2022-08-14T11:28:47.974Z,29.77
2022-08-14T11:31:23.787Z,29.80
2022-08-14T11:33:55.538Z,29.85
2022-08-14T11:36:57.081Z,29.96
2022-08-14T11:39:34.749Z,29.98
2022-08-14T11:42:07.627Z,29.88
2022-08-14T11:45:04.878Z,30.28
2022-08-14T11:47:44.122Z,30.33
2022-08-14T11:50:37.318Z,30.23
2022-08-14T11:53:08.816Z,30.32
2022-08-14T11:55:39.834Z,30.23
2022-08-14T11:58:11.617Z,30.45
2022-08-14T12:00:53.965Z,30.60
2022-08-14T12:03:27.204Z,30.37
2022-08-14T12:06:28.129Z,30.51
2022-08-14T12:09:00.260Z,30.02
2022-08-14T12:11:43.477Z,30.40
2022-08-14T12:14:29.104Z,30.39
2022-08-14T12:17:04.296Z,30.19
2022-08-14T12:19:33.629Z,30.41
2022-08-14T12:22:03.300Z,30.12
2022-08-14T12:24:36.600Z,29.97
2022-08-14T12:27:07.240Z,30.33
2022-08-14T12:29:34.893Z,29.95
2022-08-14T12:32:06.710Z,30.27
2022-08-14T12:34:37.539Z,30.22
2022-08-14T12:37:06.307Z,30.19
2022-08-14T12:39:39.705Z,29.64
2022-08-14T12:42:07.966Z,30.05
2022-08-14T12:44:37.446Z,29.94
2022-08-14T12:47:17.048Z,29.87
2022-08-14T12:49:53.044Z,29.40
2022-08-14T12:52:36.259Z,29.61
2022-08-14T12:55:18.741Z,29.09
2022-08-14T12:57:49.340Z,29.38
2022-08-14T13:00:23.972Z,29.38
2022-08-14T13:02:55.948Z,29.39
2022-08-14T13:05:30.266Z,29.34
2022-08-14T13:07:59.348Z,29.31
2022-08-14T13:10:47.854Z,29.17
2022-08-14T13:16:53.485Z,29.00
2022-08-14T13:19:28.440Z,29.02
2022-08-14T13:22:05.601Z,28.80
2022-08-14T13:24:39.623Z,28.86
2022-08-14T13:27:09.760Z,28.55
2022-08-14T13:29:46.912Z,28.88
2022-08-14T13:32:15.234Z,28.81
2022-08-14T13:34:46.058Z,28.71
2022-08-14T13:37:17.871Z,28.76
2022-08-14T13:39:56.208Z,28.70
2022-08-14T13:42:23.603Z,28.46
2022-08-14T13:44:54.006Z,28.21
2022-08-14T13:47:23.682Z,28.57
2022-08-14T13:49:56.843Z,28.56
2022-08-14T13:52:52.683Z,28.40
2022-08-14T13:55:16.096Z,28.47
2022-08-14T13:57:49.857Z,28.42
2022-08-14T14:00:35.372Z,28.58
2022-08-14T14:03:08.627Z,28.17
2022-08-14T14:05:52.797Z,28.14
2022-08-14T14:08:46.878Z,28.29
2022-08-14T14:11:15.689Z,28.00
2022-08-14T14:13:45.694Z,28.12
2022-08-14T14:16:21.782Z,28.07
2022-08-14T14:18:55.459Z,28.03
2022-08-14T14:21:28.640Z,27.95
2022-08-14T14:23:59.677Z,27.18
2022-08-14T14:26:30.415Z,27.67
2022-08-14T14:29:07.648Z,27.96
2022-08-14T14:31:38.887Z,27.56
2022-08-14T14:34:20.020Z,27.92
2022-08-14T14:37:03.096Z,27.88
2022-08-14T14:39:37.760Z,27.78
2022-08-14T14:42:09.370Z,27.83
2022-08-14T14:44:42.512Z,27.85
2022-08-14T14:47:11.860Z,27.78
2022-08-14T14:49:54.873Z,27.62
2022-08-14T14:52:27.787Z,27.32
2022-08-14T14:54:58.685Z,27.47
2022-08-14T14:57:35.122Z,27.57
2022-08-14T15:00:12.712Z,26.88
2022-08-14T15:02:43.780Z,27.70
2022-08-14T15:05:14.366Z,27.25
2022-08-14T15:07:42.594Z,27.58
2022-08-14T15:10:27.880Z,27.61
2022-08-14T15:13:03.559Z,27.31
2022-08-14T15:15:32.724Z,27.54
2022-08-14T15:18:01.199Z,27.34
2022-08-14T15:20:30.461Z,27.45
2022-08-14T15:23:12.075Z,26.97
2022-08-14T15:25:42.063Z,26.97
2022-08-14T15:28:12.874Z,27.08
2022-08-14T15:30:46.278Z,27.46
2022-08-14T15:34:13.167Z,27.29
2022-08-14T15:36:31.397Z,27.21
2022-08-14T15:38:59.604Z,27.37
2022-08-14T15:41:27.085Z,27.29
2022-08-14T15:44:01.688Z,27.12
2022-08-14T15:46:43.264Z,27.12
2022-08-14T15:49:12.955Z,26.98
2022-08-14T15:51:42.368Z,27.25
2022-08-14T15:54:11.304Z,27.24
2022-08-14T15:56:42.728Z,26.77
2022-08-14T15:59:12.968Z,26.99
2022-08-14T16:01:53.397Z,27.18
2022-08-14T16:04:24.053Z,26.71
2022-08-14T16:06:55.537Z,26.73
2022-08-14T16:09:23.475Z,26.60
2022-08-14T16:11:53.956Z,26.57
2022-08-14T16:14:24.142Z,26.89
2022-08-14T16:17:00.656Z,26.96
2022-08-14T16:19:33.159Z,27.01
2022-08-14T16:22:59.267Z,26.63
2022-08-14T16:25:02.117Z,27.14
2022-08-14T16:30:27.683Z,26.80
2022-08-14T16:32:57.988Z,26.85
2022-08-14T16:35:42.547Z,26.25
2022-08-14T16:38:29.435Z,26.16
2022-08-14T16:40:24.352Z,26.85
2022-08-14T16:41:22.833Z,26.69
2022-08-14T16:43:54.244Z,26.72
2022-08-14T16:46:28.153Z,26.67
2022-08-14T16:48:58.753Z,26.31
2022-08-14T16:51:28.333Z,26.22
2022-08-14T16:54:00.560Z,26.67
2022-08-14T16:56:30.929Z,26.66
2022-08-14T16:59:51.764Z,26.70
2022-08-14T17:02:11.475Z,26.77
2022-08-14T17:04:41.059Z,26.38
2022-08-14T17:07:13.970Z,26.14
2022-08-14T17:09:45.014Z,26.54
2022-08-14T17:12:28.497Z,26.12
2022-08-14T17:15:03.849Z,26.53
2022-08-14T17:17:40.544Z,26.50
2022-08-14T17:20:51.505Z,26.16
2022-08-14T17:23:10.863Z,26.36
2022-08-14T17:25:39.076Z,26.40
2022-08-14T17:28:52.463Z,26.23
2022-08-14T17:31:02.869Z,26.31
2022-08-14T17:33:40.630Z,26.31
2022-08-14T17:36:24.242Z,26.34
2022-08-14T17:39:02.713Z,26.33
2022-08-14T17:41:48.114Z,26.05
2022-08-14T17:44:45.079Z,24.81
2022-08-14T17:47:18.150Z,25.74
2022-08-14T17:49:52.194Z,25.82
2022-08-14T17:52:36.268Z,26.03
2022-08-14T17:56:01.377Z,25.49
2022-08-14T17:58:02.050Z,26.10
2022-08-14T18:00:50.645Z,25.96
2022-08-14T18:03:46.774Z,25.94
2022-08-14T18:06:38.634Z,25.64
2022-08-14T18:08:59.189Z,25.93
2022-08-14T18:11:46.230Z,25.42
2022-08-14T18:14:31.643Z,25.32
2022-08-14T18:17:01.596Z,25.28
2022-08-14T18:19:34.513Z,25.78
2022-08-14T18:22:24.008Z,25.51
2022-08-14T18:24:53.240Z,25.68
2022-08-14T18:27:32.695Z,25.53
2022-08-14T18:30:31.236Z,25.58
2022-08-14T18:32:54.965Z,25.53
2022-08-14T18:35:56.735Z,25.42
2022-08-14T18:38:45.969Z,25.42
2022-08-14T18:41:37.392Z,25.46
2022-08-14T18:44:11.187Z,25.27
2022-08-14T18:47:15.209Z,25.45
2022-08-14T18:49:57.881Z,25.35
2022-08-14T18:52:37.334Z,25.30
2022-08-14T18:55:21.473Z,25.19
2022-08-14T18:57:58.053Z,25.20
2022-08-14T19:00:39.960Z,25.14
2022-08-14T19:03:11.821Z,25.09
2022-08-14T19:05:47.678Z,24.68
2022-08-14T19:08:18.635Z,24.97
2022-08-14T19:10:54.740Z,24.48
2022-08-14T19:13:44.674Z,25.01
2022-08-14T19:16:23.316Z,24.98
2022-08-14T19:19:00.159Z,24.95
2022-08-14T19:21:27.914Z,24.91
2022-08-14T19:24:27.245Z,24.54
2022-08-14T19:27:16.649Z,24.95
2022-08-14T19:29:47.915Z,24.75
2022-08-14T19:32:40.202Z,24.73
2022-08-14T19:35:49.135Z,24.69
2022-08-14T19:39:06.345Z,24.85
2022-08-14T19:41:34.616Z,24.89
2022-08-14T19:44:19.362Z,24.73
2022-08-14T19:47:00.098Z,24.66
2022-08-14T19:50:24.990Z,24.64
2022-08-14T19:52:23.915Z,24.58
2022-08-14T19:54:52.416Z,24.45
2022-08-14T19:57:29.185Z,24.58
2022-08-14T20:00:28.246Z,24.50
2022-08-14T20:03:04.464Z,24.42
2022-08-14T20:05:45.449Z,23.90
2022-08-14T20:11:07.028Z,24.23
2022-08-14T20:11:19.240Z,23.92
2022-08-14T20:13:47.563Z,24.28
2022-08-14T20:16:20.983Z,24.14
2022-08-14T20:18:50.103Z,24.35
2022-08-14T20:21:18.732Z,24.33
2022-08-14T20:23:48.236Z,23.98
2022-08-14T20:26:30.542Z,24.01
2022-08-14T20:29:05.250Z,23.86
2022-08-14T20:31:37.063Z,24.27
2022-08-14T20:34:24.605Z,24.00
2022-08-14T20:37:16.410Z,24.17
2022-08-14T20:39:54.697Z,23.73
2022-08-14T20:42:43.701Z,23.34
2022-08-14T20:45:21.645Z,23.99
2022-08-14T20:47:58.575Z,24.12
2022-08-14T20:50:29.768Z,23.63
2022-08-14T20:53:05.808Z,23.89
2022-08-14T20:55:41.759Z,24.25
2022-08-14T20:58:41.853Z,23.95
2022-08-14T21:01:18.968Z,24.06
2022-08-14T21:03:58.233Z,23.94
2022-08-14T21:07:23.012Z,23.85
2022-08-14T21:10:03.201Z,23.55
2022-08-14T21:12:35.245Z,23.48
2022-08-14T21:15:01.084Z,23.93
2022-08-14T21:17:29.688Z,23.93
2022-08-14T21:19:56.961Z,23.71
2022-08-14T21:22:25.578Z,23.33
2022-08-14T21:25:02.240Z,23.83
2022-08-14T21:27:37.329Z,23.85
2022-08-14T21:30:08.472Z,23.71
2022-08-14T21:32:50.649Z,23.80
2022-08-14T21:35:26.127Z,23.79
2022-08-14T21:37:53.950Z,23.71
2022-08-14T21:40:39.952Z,23.35
2022-08-14T21:43:17.449Z,23.71
2022-08-14T21:45:53.205Z,23.30
2022-08-14T21:48:25.042Z,23.20
2022-08-14T21:51:01.204Z,23.14
2022-08-14T21:53:34.256Z,23.53
2022-08-14T21:56:03.243Z,23.54
2022-08-14T21:58:52.761Z,23.46
2022-08-14T22:01:19.454Z,23.52
2022-08-14T22:03:55.120Z,23.29
2022-08-14T22:06:28.903Z,23.27
2022-08-14T22:08:58.318Z,23.38
2022-08-14T22:11:27.299Z,23.37
2022-08-14T22:14:02.108Z,23.18
2022-08-14T22:17:02.107Z,23.15
2022-08-14T22:19:47.602Z,23.19
2022-08-14T22:22:26.037Z,23.19
2022-08-14T22:25:00.179Z,23.19
2022-08-14T22:27:32.259Z,23.22
2022-08-14T22:30:02.336Z,22.88
2022-08-14T22:32:55.924Z,22.84
2022-08-14T22:35:23.439Z,22.02
2022-08-14T22:38:34.899Z,23.10
2022-08-14T22:40:57.611Z,22.96
2022-08-14T22:43:28.182Z,23.10
2022-08-14T22:46:02.169Z,23.00
2022-08-14T22:48:30.171Z,22.98
2022-08-14T22:50:57.303Z,23.01
2022-08-14T22:53:29.535Z,22.85
2022-08-14T22:55:58.877Z,22.85
2022-08-14T22:58:31.342Z,22.76
2022-08-14T23:01:01.362Z,22.91
2022-08-14T23:03:31.306Z,22.72
2022-08-14T23:06:02.318Z,22.55
2022-08-14T23:08:56.303Z,22.72
2022-08-14T23:11:16.753Z,22.81
2022-08-14T23:13:46.091Z,22.76
2022-08-14T23:16:20.064Z,22.67
2022-08-14T23:18:53.460Z,22.42
2022-08-14T23:21:24.586Z,22.66
2022-08-14T23:23:55.045Z,22.62
2022-08-14T23:26:49.921Z,22.42
2022-08-14T23:29:12.942Z,21.51
2022-08-14T23:31:45.156Z,22.25
2022-08-14T23:34:20.583Z,22.43
2022-08-14T23:36:54.844Z,22.50
2022-08-14T23:39:32.911Z,22.52
2022-08-14T23:42:05.082Z,22.45
2022-08-14T23:44:35.711Z,21.93
2022-08-14T23:47:11.011Z,22.37
2022-08-14T23:50:00.430Z,22.38
2022-08-14T23:52:50.604Z,21.85
2022-08-14T23:55:25.365Z,22.13
2022-08-14T23:57:58.243Z,22.21
